createdAt,value
2023-02-16T00:01:19.206Z,100.00
2023-02-16T00:03:47.246Z,100.00
2023-02-16T00:06:16.254Z,100.00
2023-02-16T00:08:49.011Z,100.00
2023-02-16T00:11:39.041Z,100.00
2023-02-16T00:14:09.765Z,100.00
2023-02-16T00:16:37.920Z,100.00
2023-02-16T00:19:17.722Z,100.00
2023-02-16T00:21:45.704Z,100.00
2023-02-16T00:24:13.698Z,100.00
2023-02-16T00:26:43.746Z,100.00
2023-02-16T00:29:16.601Z,100.00
2023-02-16T00:31:44.729Z,100.00
2023-02-16T00:34:31.742Z,100.00
2023-02-16T00:37:00.971Z,100.00
2023-02-16T00:39:29.796Z,100.00
2023-02-16T00:42:00.938Z,100.00
2023-02-16T00:44:34.305Z,100.00
2023-02-16T00:47:04.666Z,100.00
2023-02-16T00:49:32.561Z,100.00
2023-02-16T00:52:00.451Z,100.00
2023-02-16T00:54:30.381Z,100.00
2023-02-16T00:57:00.283Z,100.00
2023-02-16T00:59:28.162Z,100.00
2023-02-16T01:01:57.494Z,100.00
2023-02-16T01:04:25.598Z,100.00
2023-02-16T01:07:10.762Z,100.00
2023-02-16T01:09:55.944Z,100.00
2023-02-16T01:12:25.224Z,100.00
2023-02-16T01:14:54.744Z,100.00
2023-02-16T01:17:22.766Z,100.00
2023-02-16T01:19:50.687Z,100.00
2023-02-16T01:22:18.674Z,100.00
2023-02-16T01:24:46.537Z,100.00
2023-02-16T01:27:14.765Z,100.00
2023-02-16T01:29:43.991Z,100.00
2023-02-16T01:32:13.699Z,100.00
2023-02-16T01:34:41.679Z,100.00
2023-02-16T01:37:15.534Z,100.00
2023-02-16T01:39:43.445Z,100.00
2023-02-16T01:42:16.663Z,100.00
2023-02-16T01:44:50.076Z,100.00
2023-02-16T01:47:30.881Z,100.00
2023-02-16T01:50:00.731Z,100.00
2023-02-16T01:52:34.122Z,100.00
2023-02-16T01:55:06.075Z,100.00
2023-02-16T01:57:39.647Z,100.00
2023-02-16T02:00:16.094Z,100.00
2023-02-16T02:02:46.815Z,100.00
2023-02-16T02:05:35.861Z,100.00
2023-02-16T02:08:21.452Z,100.00
2023-02-16T02:10:58.690Z,100.00
2023-02-16T02:13:30.684Z,100.00
2023-02-16T02:16:02.065Z,100.00
2023-02-16T02:18:29.999Z,100.00
2023-02-16T02:21:44.632Z,100.00
2023-02-16T02:24:39.960Z,100.00
2023-02-16T02:27:15.939Z,100.00
2023-02-16T02:30:20.282Z,100.00
2023-02-16T02:32:57.588Z,100.00
2023-02-16T02:35:36.904Z,100.00
2023-02-16T02:38:10.599Z,100.00
2023-02-16T02:40:46.849Z,100.00
2023-02-16T02:43:20.308Z,100.00
2023-02-16T02:45:50.367Z,100.00
2023-02-16T02:48:18.620Z,100.00
2023-02-16T02:51:10.732Z,100.00
2023-02-16T02:53:41.424Z,100.00
2023-02-16T02:56:27.223Z,100.00
2023-02-16T02:59:15.779Z,100.00
2023-02-16T03:01:46.780Z,100.00
2023-02-16T03:04:16.776Z,100.00
2023-02-16T03:06:47.064Z,100.00
2023-02-16T03:09:15.783Z,100.00
2023-02-16T03:12:02.148Z,100.00
2023-02-16T03:14:34.830Z,100.00
2023-02-16T03:17:24.006Z,100.00
2023-02-16T03:20:10.639Z,100.00
2023-02-16T03:22:57.549Z,100.00
2023-02-16T03:25:45.177Z,100.00
2023-02-16T03:28:30.931Z,100.00
2023-02-16T03:31:01.596Z,100.00
2023-02-16T03:33:30.111Z,100.00
2023-02-16T03:35:58.992Z,100.00
2023-02-16T03:38:27.681Z,100.00
2023-02-16T03:40:55.657Z,100.00
2023-02-16T03:43:26.158Z,100.00
2023-02-16T03:45:54.158Z,100.00
2023-02-16T03:48:23.553Z,100.00
2023-02-16T03:50:51.450Z,100.00
2023-02-16T03:53:19.349Z,100.00
2023-02-16T03:55:49.563Z,100.00
2023-02-16T03:58:19.530Z,100.00
2023-02-16T04:00:47.852Z,100.00
2023-02-16T04:03:16.188Z,100.00
2023-02-16T04:05:46.014Z,100.00
2023-02-16T04:08:13.956Z,100.00
2023-02-16T04:10:41.907Z,100.00
2023-02-16T04:13:09.316Z,100.00
2023-02-16T04:15:37.546Z,100.00
2023-02-16T04:18:05.612Z,100.00
2023-02-16T04:20:34.891Z,100.00
2023-02-16T04:23:04.778Z,100.00
2023-02-16T04:25:32.816Z,100.00
2023-02-16T04:28:01.071Z,100.00
2023-02-16T04:30:31.182Z,100.00
2023-02-16T04:32:59.936Z,100.00
2023-02-16T04:35:27.963Z,100.00
2023-02-16T04:37:55.870Z,100.00
2023-02-16T04:40:25.173Z,100.00
2023-02-16T04:42:53.109Z,100.00
2023-02-16T04:45:21.051Z,100.00
2023-02-16T04:47:48.928Z,100.00
2023-02-16T04:50:16.829Z,100.00
2023-02-16T04:52:44.735Z,100.00
2023-02-16T04:55:12.868Z,100.00
2023-02-16T04:57:42.396Z,100.00
2023-02-16T05:00:12.837Z,100.00
2023-02-16T05:02:40.754Z,100.00
2023-02-16T05:05:09.658Z,100.00
2023-02-16T05:07:37.666Z,100.00
2023-02-16T05:10:06.960Z,100.00
2023-02-16T05:12:52.149Z,100.00
2023-02-16T05:15:21.472Z,100.00
2023-02-16T05:17:50.538Z,100.00
2023-02-16T05:20:18.625Z,100.00
2023-02-16T05:22:46.664Z,100.00
2023-02-16T05:25:14.897Z,100.00
2023-02-16T05:27:42.845Z,100.00
2023-02-16T05:30:12.035Z,100.00
2023-02-16T05:32:41.327Z,100.00
2023-02-16T05:35:09.387Z,100.00
2023-02-16T05:37:37.322Z,100.00
2023-02-16T05:40:05.714Z,100.00
2023-02-16T05:42:33.617Z,100.00
2023-02-16T05:45:02.385Z,100.00
2023-02-16T05:47:30.468Z,100.00
2023-02-16T05:49:59.730Z,100.00
2023-02-16T05:52:27.676Z,100.00
2023-02-16T05:54:55.578Z,100.00
2023-02-16T05:57:23.608Z,100.00
2023-02-16T05:59:51.499Z,100.00
2023-02-16T06:02:19.810Z,100.00
2023-02-16T06:04:47.766Z,100.00
2023-02-16T06:07:17.042Z,100.00
2023-02-16T06:09:45.027Z,100.00
2023-02-16T06:12:12.904Z,100.00
2023-02-16T06:14:40.873Z,100.00
2023-02-16T06:17:08.797Z,100.00
2023-02-16T06:19:36.759Z,100.00
2023-02-16T06:22:04.683Z,100.00
2023-02-16T06:24:34.125Z,100.00
2023-02-16T06:27:02.056Z,100.00
2023-02-16T06:29:30.882Z,100.00
2023-02-16T06:31:58.973Z,100.00
2023-02-16T06:34:27.288Z,100.00
2023-02-16T06:36:55.237Z,100.00
2023-02-16T06:39:23.161Z,100.00
2023-02-16T06:41:52.378Z,100.00
2023-02-16T06:44:20.475Z,100.00
2023-02-16T06:46:49.397Z,100.00
2023-02-16T06:49:19.469Z,100.00
2023-02-16T06:51:47.772Z,100.00
2023-02-16T06:54:16.022Z,100.00
2023-02-16T06:56:44.051Z,100.00
2023-02-16T06:59:14.013Z,100.00
2023-02-16T07:01:44.159Z,100.00
2023-02-16T07:04:13.724Z,100.00
2023-02-16T07:06:41.813Z,100.00
2023-02-16T07:09:11.485Z,100.00
2023-02-16T07:11:40.655Z,100.00
2023-02-16T07:14:08.516Z,100.00
2023-02-16T07:16:38.112Z,100.00
2023-02-16T07:19:07.011Z,100.00
2023-02-16T07:21:35.186Z,100.00
2023-02-16T07:24:03.772Z,100.00
2023-02-16T07:26:31.817Z,100.00
2023-02-16T07:28:59.835Z,100.00
2023-02-16T07:31:27.773Z,100.00
2023-02-16T07:33:57.178Z,100.00
2023-02-16T07:36:25.099Z,100.00
2023-02-16T07:38:53.637Z,100.00
2023-02-16T07:41:22.386Z,100.00
2023-02-16T07:43:50.251Z,100.00
2023-02-16T07:46:18.379Z,100.00
2023-02-16T07:48:48.459Z,100.00
2023-02-16T07:51:23.468Z,100.00
2023-02-16T07:53:51.460Z,100.00
2023-02-16T07:56:24.609Z,100.00
2023-02-16T07:58:52.701Z,100.00
2023-02-16T08:01:20.802Z,100.00
2023-02-16T08:03:48.725Z,100.00
2023-02-16T08:06:16.852Z,100.00
2023-02-16T08:08:46.297Z,100.00
2023-02-16T08:11:15.865Z,100.00
2023-02-16T08:13:44.145Z,100.00
2023-02-16T08:16:14.188Z,100.00
2023-02-16T08:18:42.726Z,100.00
2023-02-16T08:21:14.375Z,100.00
2023-02-16T08:23:43.445Z,100.00
2023-02-16T08:26:13.333Z,100.00
2023-02-16T08:28:46.143Z,100.00
2023-02-16T08:31:14.603Z,100.00
2023-02-16T08:33:42.562Z,100.00
2023-02-16T08:36:18.117Z,100.00
2023-02-16T08:38:46.128Z,100.00
2023-02-16T08:41:16.002Z,100.00
2023-02-16T08:43:43.917Z,100.00
2023-02-16T08:46:11.838Z,100.00
2023-02-16T08:48:40.453Z,100.00
2023-02-16T08:51:09.926Z,100.00
2023-02-16T08:53:37.986Z,100.00
2023-02-16T08:56:06.898Z,100.00
2023-02-16T08:58:37.177Z,100.00
2023-02-16T09:01:05.989Z,100.00
2023-02-16T09:03:33.915Z,100.00
2023-02-16T09:06:03.823Z,100.00
2023-02-16T09:08:32.756Z,100.00
2023-02-16T09:11:02.865Z,100.00
2023-02-16T09:13:31.086Z,100.00
2023-02-16T09:16:05.296Z,100.00
2023-02-16T09:18:33.691Z,100.00
2023-02-16T09:21:05.105Z,100.00
2023-02-16T09:23:33.037Z,100.00
2023-02-16T09:26:02.138Z,100.00
2023-02-16T09:28:30.853Z,100.00
2023-02-16T09:30:58.938Z,100.00
2023-02-16T09:33:28.543Z,100.00
2023-02-16T09:35:56.448Z,100.00
2023-02-16T09:38:25.542Z,100.00
2023-02-16T09:40:53.840Z,100.00
2023-02-16T09:43:34.451Z,100.00
2023-02-16T09:46:02.942Z,100.00
2023-02-16T09:48:37.461Z,100.00
2023-02-16T09:51:07.119Z,100.00
2023-02-16T09:53:37.676Z,100.00
2023-02-16T09:56:14.652Z,100.00
2023-02-16T09:58:46.129Z,100.00
2023-02-16T10:01:21.765Z,100.00
2023-02-16T10:03:56.876Z,100.00
2023-02-16T10:06:45.076Z,100.00
2023-02-16T10:09:16.410Z,100.00
2023-02-16T10:11:48.920Z,100.00
2023-02-16T10:14:30.908Z,100.00
2023-02-16T10:17:05.208Z,100.00
2023-02-16T10:19:38.614Z,100.00
2023-02-16T10:22:10.016Z,100.00
2023-02-16T10:24:42.917Z,100.00
2023-02-16T10:27:16.299Z,100.00
2023-02-16T10:29:44.305Z,100.00
2023-02-16T10:32:17.822Z,100.00
2023-02-16T10:34:58.125Z,100.00
2023-02-16T10:37:38.839Z,100.00
2023-02-16T10:40:22.883Z,100.00
2023-02-16T10:42:56.274Z,100.00
2023-02-16T10:45:27.437Z,100.00
2023-02-16T10:47:55.625Z,100.00
2023-02-16T10:50:28.251Z,100.00
2023-02-16T10:52:59.901Z,100.00
2023-02-16T10:55:27.810Z,100.00
2023-02-16T10:57:57.426Z,100.00
2023-02-16T11:00:35.138Z,100.00
2023-02-16T11:03:04.264Z,100.00
2023-02-16T11:05:36.453Z,100.00
2023-02-16T11:08:05.114Z,100.00
2023-02-16T11:10:41.906Z,100.00
2023-02-16T11:13:21.761Z,100.00
2023-02-16T11:15:54.621Z,100.00
2023-02-16T11:18:41.967Z,100.00
2023-02-16T11:21:12.468Z,100.00
2023-02-16T11:23:42.205Z,100.00
2023-02-16T11:26:24.060Z,100.00
2023-02-16T11:28:52.703Z,100.00
2023-02-16T11:31:24.493Z,100.00
2023-02-16T11:33:58.013Z,100.00
2023-02-16T11:36:32.848Z,100.00
2023-02-16T11:39:03.004Z,100.00
2023-02-16T11:41:33.505Z,100.00
2023-02-16T11:44:03.094Z,100.00
2023-02-16T11:46:40.187Z,100.00
2023-02-16T11:49:30.072Z,100.00
2023-02-16T11:51:59.531Z,100.00
2023-02-16T11:54:27.751Z,100.00
2023-02-16T11:57:09.318Z,100.00
2023-02-16T11:59:38.776Z,100.00
2023-02-16T12:02:33.518Z,100.00
2023-02-16T12:05:12.359Z,100.00
2023-02-16T12:07:48.519Z,93.61
2023-02-16T12:10:22.475Z,85.75
2023-02-16T12:12:55.844Z,82.37
2023-02-16T12:15:27.944Z,79.38
2023-02-16T12:18:15.357Z,77.84
2023-02-16T12:20:49.539Z,76.14
2023-02-16T12:23:30.282Z,76.78
2023-02-16T12:26:09.998Z,73.20
2023-02-16T12:28:42.794Z,73.36
2023-02-16T12:31:22.027Z,73.43
2023-02-16T12:33:56.245Z,72.16
2023-02-16T12:36:35.941Z,69.60
2023-02-16T12:39:12.372Z,69.28
2023-02-16T12:41:48.864Z,67.76
2023-02-16T12:44:19.361Z,67.71
2023-02-16T12:46:48.962Z,67.16
2023-02-16T12:49:21.189Z,67.35
2023-02-16T12:51:51.542Z,65.83
2023-02-16T12:54:25.292Z,65.32
2023-02-16T12:56:56.118Z,65.35
2023-02-16T12:59:27.097Z,64.03
2023-02-16T13:01:57.134Z,64.23
2023-02-16T13:04:29.359Z,64.65
2023-02-16T13:07:00.963Z,64.26
2023-02-16T13:09:37.869Z,64.04
2023-02-16T13:12:11.551Z,63.76
2023-02-16T13:14:43.522Z,63.12
2023-02-16T13:17:15.445Z,62.93
2023-02-16T13:19:44.314Z,62.73
2023-02-16T13:22:33.421Z,61.79
2023-02-16T13:25:34.158Z,61.89
2023-02-16T13:28:10.208Z,62.10
2023-02-16T13:30:51.959Z,61.27
2023-02-16T13:33:40.907Z,62.49
2023-02-16T13:36:22.480Z,61.38
2023-02-16T13:39:27.109Z,59.55
2023-02-16T13:42:20.592Z,61.57
2023-02-16T13:44:51.770Z,60.20
2023-02-16T13:47:22.138Z,61.27
2023-02-16T13:49:50.374Z,60.62
2023-02-16T13:52:31.113Z,58.89
2023-02-16T13:54:59.822Z,58.23
2023-02-16T13:58:01.734Z,58.42
2023-02-16T14:00:32.719Z,58.62
2023-02-16T14:03:03.434Z,58.73
2023-02-16T14:05:34.805Z,57.65
2023-02-16T14:08:24.467Z,58.03
2023-02-16T14:11:12.108Z,57.13
2023-02-16T14:13:51.892Z,57.06
2023-02-16T14:16:34.140Z,57.46
2023-02-16T14:19:05.226Z,57.03
2023-02-16T14:21:37.783Z,57.75
2023-02-16T14:24:08.689Z,56.99
2023-02-16T14:26:52.099Z,56.94
2023-02-16T14:29:22.807Z,56.33
2023-02-16T14:31:56.473Z,55.70
2023-02-16T14:34:27.862Z,54.44
2023-02-16T14:37:40.776Z,55.91
2023-02-16T14:40:43.206Z,55.16
2023-02-16T14:43:24.930Z,54.74
2023-02-16T14:46:44.833Z,53.40
2023-02-16T14:49:52.277Z,53.58
2023-02-16T14:52:44.285Z,54.19
2023-02-16T14:55:36.384Z,54.46
2023-02-16T14:58:11.944Z,55.16
2023-02-16T15:00:45.919Z,54.55
2023-02-16T15:03:20.694Z,55.49
2023-02-16T15:05:58.339Z,57.60
2023-02-16T15:08:35.045Z,72.98
2023-02-16T15:11:06.090Z,90.91
2023-02-16T15:13:34.706Z,97.69
2023-02-16T15:16:04.807Z,100.00
2023-02-16T15:18:40.216Z,100.00
2023-02-16T15:21:18.873Z,100.00
2023-02-16T15:23:51.417Z,100.00
2023-02-16T15:26:22.011Z,100.00
2023-02-16T15:28:55.301Z,100.00
2023-02-16T15:31:26.716Z,100.00
2023-02-16T15:33:56.825Z,100.00
2023-02-16T15:36:33.759Z,100.00
2023-02-16T15:39:02.970Z,100.00
2023-02-16T15:41:33.417Z,100.00
2023-02-16T15:44:03.504Z,100.00
2023-02-16T15:46:33.343Z,100.00
2023-02-16T15:49:12.397Z,100.00
2023-02-16T15:51:43.178Z,100.00
2023-02-16T15:54:24.512Z,100.00
2023-02-16T15:56:53.498Z,100.00
2023-02-16T15:59:33.543Z,100.00
2023-02-16T16:02:05.212Z,100.00
2023-02-16T16:04:38.680Z,100.00
2023-02-16T16:07:09.377Z,100.00
2023-02-16T16:09:37.625Z,100.00
2023-02-16T16:12:07.298Z,100.00
2023-02-16T16:14:37.231Z,100.00
2023-02-16T16:17:05.842Z,100.00
2023-02-16T16:19:35.822Z,100.00
2023-02-16T16:22:04.699Z,100.00
2023-02-16T16:24:38.901Z,100.00
2023-02-16T16:27:09.373Z,100.00
2023-02-16T16:29:41.261Z,100.00
2023-02-16T16:32:19.839Z,100.00
2023-02-16T16:34:47.804Z,100.00
2023-02-16T16:37:26.707Z,100.00
2023-02-16T16:40:05.320Z,100.00
2023-02-16T16:42:34.636Z,100.00
2023-02-16T16:45:07.197Z,100.00
2023-02-16T16:47:38.257Z,100.00
2023-02-16T16:50:23.868Z,100.00
2023-02-16T16:52:52.275Z,100.00
2023-02-16T16:55:33.449Z,100.00
2023-02-16T16:58:04.295Z,100.00
2023-02-16T17:00:35.495Z,100.00
2023-02-16T17:03:03.990Z,100.00
2023-02-16T17:05:31.996Z,100.00
2023-02-16T17:07:59.913Z,100.00
2023-02-16T17:10:27.829Z,100.00
2023-02-16T17:12:59.493Z,100.00
2023-02-16T17:15:40.348Z,100.00
2023-02-16T17:18:11.085Z,100.00
2023-02-16T17:20:38.992Z,100.00
2023-02-16T17:23:07.045Z,100.00
2023-02-16T17:25:35.934Z,100.00
2023-02-16T17:28:06.274Z,100.00
2023-02-16T17:30:35.274Z,100.00
2023-02-16T17:33:03.446Z,100.00
2023-02-16T17:35:33.149Z,100.00
2023-02-16T17:38:01.056Z,100.00
2023-02-16T17:40:28.943Z,100.00
2023-02-16T17:42:56.824Z,100.00
2023-02-16T17:45:26.050Z,100.00
2023-02-16T17:47:54.071Z,100.00
2023-02-16T17:50:22.381Z,100.00
2023-02-16T17:52:50.257Z,100.00
2023-02-16T17:55:18.300Z,100.00
2023-02-16T17:57:46.195Z,100.00
2023-02-16T18:00:19.050Z,100.00
2023-02-16T18:02:48.982Z,100.00
2023-02-16T18:05:17.075Z,100.00
2023-02-16T18:07:44.933Z,100.00
2023-02-16T18:10:18.280Z,100.00
2023-02-16T18:12:46.161Z,100.00
2023-02-16T18:15:14.033Z,100.00
2023-02-16T18:17:41.948Z,100.00
2023-02-16T18:20:15.825Z,100.00
2023-02-16T18:22:43.763Z,100.00
2023-02-16T18:25:11.712Z,100.00
2023-02-16T18:27:39.629Z,100.00
2023-02-16T18:30:09.992Z,100.00
2023-02-16T18:32:38.273Z,100.00
2023-02-16T18:35:07.065Z,100.00
2023-02-16T18:37:37.011Z,100.00
2023-02-16T18:40:06.474Z,100.00
2023-02-16T18:42:34.369Z,100.00
2023-02-16T18:45:02.291Z,100.00
2023-02-16T18:47:30.714Z,100.00
2023-02-16T18:49:58.642Z,100.00
2023-02-16T18:52:26.622Z,100.00
2023-02-16T18:54:55.882Z,100.00
2023-02-16T18:57:23.836Z,100.00
2023-02-16T18:59:51.846Z,100.00
2023-02-16T19:02:19.733Z,100.00
2023-02-16T19:04:47.950Z,100.00
2023-02-16T19:07:15.844Z,100.00
2023-02-16T19:09:43.892Z,100.00
2023-02-16T19:12:13.126Z,100.00
2023-02-16T19:14:41.016Z,100.00
2023-02-16T19:17:08.894Z,100.00
2023-02-16T19:19:36.940Z,100.00
2023-02-16T19:22:04.954Z,100.00
2023-02-16T19:24:32.998Z,100.00
2023-02-16T19:27:00.892Z,100.00
2023-02-16T19:29:30.198Z,100.00
2023-02-16T19:31:58.310Z,100.00
2023-02-16T19:34:26.313Z,100.00
2023-02-16T19:36:54.203Z,100.00
2023-02-16T19:39:22.419Z,100.00
2023-02-16T19:41:50.322Z,100.00
2023-02-16T19:44:18.242Z,100.00
2023-02-16T19:46:47.501Z,100.00
2023-02-16T19:49:17.086Z,100.00
2023-02-16T19:51:47.592Z,100.00
2023-02-16T19:54:15.836Z,100.00
2023-02-16T19:56:43.729Z,100.00
2023-02-16T19:59:11.607Z,100.00
2023-02-16T20:01:39.516Z,100.00
2023-02-16T20:04:08.812Z,100.00
2023-02-16T20:06:39.275Z,100.00
2023-02-16T20:09:07.244Z,100.00
2023-02-16T20:11:35.842Z,100.00
2023-02-16T20:14:03.727Z,100.00
2023-02-16T20:16:32.166Z,100.00
2023-02-16T20:19:00.428Z,100.00
2023-02-16T20:21:30.755Z,100.00
2023-02-16T20:24:00.096Z,100.00
2023-02-16T20:26:29.579Z,100.00
2023-02-16T20:28:57.505Z,100.00
2023-02-16T20:31:27.859Z,100.00
2023-02-16T20:33:56.659Z,100.00
2023-02-16T20:36:25.014Z,100.00
2023-02-16T20:38:54.297Z,100.00
2023-02-16T20:41:22.363Z,100.00
2023-02-16T20:43:50.429Z,100.00
2023-02-16T20:46:19.120Z,100.00
2023-02-16T20:48:50.041Z,100.00
2023-02-16T20:51:18.392Z,100.00
2023-02-16T20:53:46.370Z,100.00
2023-02-16T20:56:17.342Z,100.00
2023-02-16T20:58:46.690Z,100.00
2023-02-16T21:01:16.770Z,100.00
2023-02-16T21:03:44.739Z,100.00
2023-02-16T21:06:12.661Z,100.00
2023-02-16T21:08:40.567Z,100.00
2023-02-16T21:11:08.675Z,100.00
2023-02-16T21:13:38.730Z,100.00
2023-02-16T21:16:08.015Z,100.00
2023-02-16T21:18:38.724Z,100.00
2023-02-16T21:21:08.573Z,100.00
2023-02-16T21:23:36.566Z,100.00
2023-02-16T21:26:06.972Z,100.00
2023-02-16T21:28:35.113Z,100.00
2023-02-16T21:31:06.324Z,100.00
2023-02-16T21:33:34.398Z,100.00
2023-02-16T21:36:06.743Z,100.00
2023-02-16T21:38:36.286Z,100.00
2023-02-16T21:41:22.612Z,100.00
2023-02-16T21:43:50.500Z,100.00
2023-02-16T21:46:20.005Z,100.00
2023-02-16T21:48:47.309Z,100.00
2023-02-16T21:51:16.529Z,100.00
2023-02-16T21:53:44.441Z,100.00
2023-02-16T21:56:22.684Z,100.00
2023-02-16T21:58:50.620Z,100.00
2023-02-16T22:01:23.865Z,100.00
2023-02-16T22:03:56.137Z,100.00
2023-02-16T22:06:25.396Z,100.00
2023-02-16T22:08:54.303Z,100.00
2023-02-16T22:11:22.644Z,100.00
2023-02-16T22:13:54.554Z,100.00
2023-02-16T22:16:24.662Z,100.00
2023-02-16T22:18:57.437Z,100.00
2023-02-16T22:21:25.794Z,100.00
2023-02-16T22:23:54.015Z,100.00
2023-02-16T22:26:24.430Z,100.00
2023-02-16T22:28:52.534Z,100.00
2023-02-16T22:31:21.604Z,100.00
2023-02-16T22:33:56.027Z,100.00
2023-02-16T22:36:23.977Z,100.00
2023-02-16T22:38:53.059Z,100.00
2023-02-16T22:41:21.432Z,100.00
2023-02-16T22:43:53.104Z,100.00
2023-02-16T22:46:21.124Z,100.00
2023-02-16T22:48:50.445Z,100.00
2023-02-16T22:51:18.685Z,100.00
2023-02-16T22:53:46.746Z,100.00
2023-02-16T22:56:16.211Z,100.00
2023-02-16T22:58:44.531Z,100.00
2023-02-16T23:01:13.426Z,100.00
2023-02-16T23:03:41.876Z,100.00
2023-02-16T23:06:16.198Z,100.00
2023-02-16T23:08:44.385Z,100.00
2023-02-16T23:11:12.537Z,100.00
2023-02-16T23:13:40.439Z,100.00
2023-02-16T23:16:10.197Z,100.00
2023-02-16T23:18:38.308Z,100.00
2023-02-16T23:21:07.706Z,100.00
2023-02-16T23:23:37.282Z,100.00
2023-02-16T23:26:07.294Z,100.00
2023-02-16T23:28:35.570Z,100.00
2023-02-16T23:31:03.899Z,100.00
2023-02-16T23:33:32.087Z,100.00
2023-02-16T23:35:59.970Z,100.00
2023-02-16T23:38:28.392Z,100.00
2023-02-16T23:40:58.125Z,100.00
2023-02-16T23:43:26.510Z,100.00
2023-02-16T23:45:54.919Z,100.00
2023-02-16T23:48:23.224Z,100.00
2023-02-16T23:50:51.898Z,100.00
2023-02-16T23:53:20.313Z,100.00
2023-02-16T23:55:59.121Z,100.00
2023-02-16T23:58:28.518Z,100.00
